Time;durP1;ratioP1;P1;durP2;ratioP2;P2;SDS_P1;SDS_P2;PMS_P1;PMS_P2;Temp;Humidity;BMP_temperature;BMP_pressure;BME280_temperature;BME280_humidity;BME280_pressure;Samples;Min_cycle;Max_cycle;Signal;HPM_P1;HPM_P2
2022/05/08 00:01:11;;;;;;;8.60;3.70;;;;;;;9.97;76.18;99332.89;105148;1274;74517;-25
2022/05/08 00:03:40;;;;;;;6.90;4.10;;;;;;;10.57;73.48;99330.02;105156;1272;74982;-25
2022/05/08 00:06:13;;;;;;;4.70;3.30;;;;;;;10.64;72.18;99329.50;105121;1274;74457;-25
2022/05/08 00:08:42;;;;;;;7.00;3.90;;;;;;;10.44;71.87;99327.88;105138;1275;62362;-25
2022/05/08 00:11:12;;;;;;;6.50;4.20;;;;;;;10.17;72.06;99324.15;105109;1274;61887;-25
2022/05/08 00:13:41;;;;;;;9.30;4.50;;;;;;;9.94;71.89;99322.39;104851;1274;75504;-26
2022/05/08 00:16:10;;;;;;;8.50;5.10;;;;;;;9.73;72.34;99321.87;104823;1274;76071;-25
2022/05/08 00:18:39;;;;;;;5.20;3.00;;;;;;;9.52;73.28;99315.56;105065;1274;74406;-25
2022/05/08 00:21:08;;;;;;;6.90;3.60;;;;;;;9.85;73.31;99318.53;104834;1273;61103;-25
2022/05/08 00:23:38;;;;;;;6.30;4.00;;;;;;;10.28;71.84;99320.73;105083;1274;62016;-25
2022/05/08 00:26:08;;;;;;;7.50;4.20;;;;;;;10.24;70.74;99319.29;105090;1275;75517;-26
2022/05/08 00:28:38;;;;;;;6.00;3.80;;;;;;;10.06;70.73;99320.29;105096;1274;75820;-25
2022/05/08 00:31:10;;;;;;;7.80;3.80;;;;;;;9.73;70.87;99314.55;104902;1274;74371;-25
2022/05/08 00:33:39;;;;;;;5.50;4.40;;;;;;;9.27;72.40;99316.86;104782;1275;61147;-25
2022/05/08 00:36:08;;;;;;;6.30;4.50;;;;;;;8.90;74.11;99319.73;105003;1274;62308;-25
2022/05/08 00:38:37;;;;;;;6.10;3.60;;;;;;;8.65;75.12;99317.67;105115;1273;75292;-26
2022/05/08 00:41:07;;;;;;;5.80;4.00;;;;;;;8.93;75.42;99319.23;105090;1274;76462;-25
2022/05/08 00:43:39;;;;;;;8.80;4.60;;;;;;;9.23;74.51;99315.73;105029;1274;73217;-25
2022/05/08 00:46:09;;;;;;;7.60;4.40;;;;;;;9.14;74.26;99316.17;104726;1274;61824;-25
2022/05/08 00:48:39;;;;;;;7.00;5.20;;;;;;;8.88;75.05;99312.30;104679;1274;61208;-25
2022/05/08 00:51:10;;;;;;;8.30;5.30;;;;;;;8.64;75.87;99312.40;104786;1273;74263;-26
2022/05/08 00:53:40;;;;;;;7.00;4.10;;;;;;;8.51;76.68;99315.21;104561;1274;76008;-25
2022/05/08 00:56:10;;;;;;;6.90;4.20;;;;;;;8.98;76.84;99313.36;105068;1274;74409;-25
2022/05/08 00:58:40;;;;;;;7.90;5.10;;;;;;;9.57;75.50;99312.06;105156;1271;61076;-25
2022/05/08 01:01:09;;;;;;;7.20;4.90;;;;;;;9.67;73.49;99311.39;104762;1271;61968;-25
2022/05/08 01:03:39;;;;;;;9.30;4.80;;;;;;;9.47;73.54;99307.57;104963;1271;74513;-26
2022/05/08 01:06:10;;;;;;;9.60;5.10;;;;;;;9.23;74.13;99306.55;105193;1270;76082;-25
2022/05/08 01:08:42;;;;;;;7.40;4.90;;;;;;;8.98;73.64;99308.14;104846;1271;74395;-25
2022/05/08 01:11:11;;;;;;;7.40;4.90;;;;;;;8.68;73.43;99307.45;104994;1271;61154;-25
2022/05/08 01:13:40;;;;;;;7.90;4.00;;;;;;;8.42;74.57;99307.27;104973;1271;62012;-25
2022/05/08 01:16:12;;;;;;;8.60;4.60;;;;;;;8.80;75.64;99310.92;105078;1271;74275;-25
2022/05/08 01:18:44;;;;;;;6.10;4.40;;;;;;;9.31;73.75;99310.28;105083;1271;74292;-25
2022/05/08 01:21:14;;;;;;;5.60;4.30;;;;;;;9.30;72.79;99311.61;104935;1271;74353;-25
2022/05/08 01:23:44;;;;;;;7.70;4.70;;;;;;;9.07;73.51;99311.89;104633;1274;62401;-25
2022/05/08 01:26:21;;;;;;;7.20;5.10;;;;;;;8.74;73.83;99314.84;104929;1271;62046;-25
2022/05/08 01:28:50;;;;;;;11.90;5.50;;;;;;;8.32;75.10;99310.05;105121;1271;75602;-25
2022/05/08 01:31:20;;;;;;;8.00;5.30;;;;;;;8.07;76.23;99307.41;105294;1271;74183;-25
2022/05/08 01:33:48;;;;;;;9.80;4.10;;;;;;;7.87;76.77;99305.05;105286;1270;74492;-25
2022/05/08 01:36:17;;;;;;;8.10;4.50;;;;;;;8.33;77.38;99311.01;105285;1271;62144;-25
2022/05/08 01:38:46;;;;;;;8.40;5.30;;;;;;;8.93;75.27;99309.69;105321;1271;60996;-25
2022/05/08 01:41:15;;;;;;;11.90;6.00;;;;;;;9.04;75.52;99306.69;105178;1271;74517;-25
2022/05/08 01:43:44;;;;;;;7.10;4.90;;;;;;;8.90;75.49;99300.90;105330;1271;75789;-25
2022/05/08 01:46:14;;;;;;;9.30;4.90;;;;;;;8.68;75.34;99297.79;105069;1271;74346;-25
2022/05/08 01:48:44;;;;;;;8.70;6.20;;;;;;;8.36;76.23;99296.41;105101;1271;61024;-25
2022/05/08 01:51:16;;;;;;;10.40;6.00;;;;;;;8.07;77.34;99294.06;104993;1271;60961;-25
2022/05/08 01:53:46;;;;;;;6.90;4.70;;;;;;;7.88;78.77;99291.38;105093;1270;75489;-25
2022/05/08 01:56:15;;;;;;;11.30;4.80;;;;;;;8.37;78.52;99291.86;105005;1271;74321;-25
2022/05/08 01:58:47;;;;;;;8.70;5.70;;;;;;;8.98;76.43;99292.17;105133;1271;74195;-25
2022/05/08 02:01:16;;;;;;;9.50;5.20;;;;;;;9.08;75.48;99292.02;105110;1271;62142;-25
2022/05/08 02:03:45;;;;;;;7.10;4.80;;;;;;;8.90;74.31;99291.23;104951;1271;61095;-25
2022/05/08 02:06:18;;;;;;;10.10;5.90;;;;;;;8.59;74.07;99287.64;105040;1271;75537;-25
2022/05/08 02:08:47;;;;;;;9.40;5.10;;;;;;;8.30;75.18;99289.61;105153;1271;75976;-25
2022/05/08 02:11:16;;;;;;;9.20;5.50;;;;;;;8.03;74.34;99293.10;105201;1271;74612;-25
2022/05/08 02:13:45;;;;;;;9.70;4.50;;;;;;;7.79;74.76;99293.49;105078;1272;64323;-25
2022/05/08 02:16:14;;;;;;;7.80;4.70;;;;;;;8.18;75.52;99296.08;104977;1274;61095;-25
2022/05/08 02:18:43;;;;;;;10.30;4.90;;;;;;;8.72;75.14;99297.33;104847;1271;75578;-25
2022/05/08 02:21:12;;;;;;;11.70;5.10;;;;;;;8.66;73.20;99298.73;105114;1271;75981;-25
2022/05/08 02:23:41;;;;;;;7.80;4.90;;;;;;;8.17;73.68;99297.55;105154;1272;72818;-25
2022/05/08 02:26:09;;;;;;;7.70;4.80;;;;;;;7.73;73.68;99293.15;105091;1271;62101;-25
2022/05/08 02:28:40;;;;;;;6.60;4.50;;;;;;;7.30;74.11;99293.38;104905;1272;284530;-25
2022/05/08 02:31:08;;;;;;;7.30;5.00;;;;;;;6.94;74.78;99294.26;104932;1274;75514;-25
2022/05/08 02:33:38;;;;;;;11.10;5.10;;;;;;;6.67;75.31;99293.27;105053;1273;75645;-25
2022/05/08 02:36:07;;;;;;;6.50;2.90;;;;;;;6.50;76.38;99299.86;105139;1274;74626;-25
2022/05/08 02:38:38;;;;;;;7.60;4.10;;;;;;;6.92;76.40;99301.39;105171;1271;61811;-25
2022/05/08 02:41:07;;;;;;;12.00;6.20;;;;;;;7.41;76.27;99312.02;105133;1271;61162;-25
2022/05/08 02:43:35;;;;;;;8.90;5.90;;;;;;;7.50;76.46;99319.06;104887;1271;74866;-26
2022/05/08 02:46:04;;;;;;;10.40;6.30;;;;;;;7.46;76.42;99316.35;104820;1271;75801;-25
2022/05/08 02:48:34;;;;;;;11.70;6.20;;;;;;;7.35;77.15;99318.27;104848;1271;74124;-25
2022/05/08 02:51:05;;;;;;;8.80;6.40;;;;;;;7.25;77.86;99318.14;104839;1271;62152;-25
2022/05/08 02:53:34;;;;;;;7.90;4.70;;;;;;;7.18;78.13;99320.20;104671;1274;61134;-26
2022/05/08 02:58:52;;;;;;;11.20;5.60;;;;;;;8.40;75.57;99321.80;104798;1274;76013;-26
2022/05/08 03:01:20;;;;;;;14.00;6.40;;;;;;;8.59;74.55;99331.08;104875;1272;74205;-28
2022/05/08 03:03:49;;;;;;;11.90;6.80;;;;;;;8.54;73.75;99328.34;104836;1272;61274;-28
2022/05/08 03:06:18;;;;;;;10.80;6.20;;;;;;;8.35;74.05;99329.94;104830;1272;61920;-27
2022/05/08 03:08:50;;;;;;;9.70;6.30;;;;;;;8.09;74.64;99327.65;104822;1272;75523;-27
2022/05/08 03:11:29;;;;;;;10.10;5.30;;;;;;;7.83;75.03;99330.36;104638;1271;76087;-26
2022/05/08 03:13:59;;;;;;;10.40;5.50;;;;;;;7.67;76.86;99335.08;105005;1271;74449;-28
2022/05/08 03:16:28;;;;;;;11.20;6.70;;;;;;;8.24;77.46;99339.48;104868;1271;61121;-29
2022/05/08 03:18:57;;;;;;;10.60;7.30;;;;;;;8.79;76.42;99339.43;105037;1271;61757;-30
2022/05/08 03:21:26;;;;;;;13.30;7.70;;;;;;;8.94;75.74;99344.58;104920;1271;74270;-29
2022/05/08 03:23:54;;;;;;;9.60;6.50;;;;;;;8.95;75.23;99345.39;104984;1271;76024;-30
2022/05/08 03:26:24;;;;;;;11.50;6.40;;;;;;;8.87;75.27;99349.21;104929;1271;74247;-26
2022/05/08 03:28:54;;;;;;;11.80;7.40;;;;;;;8.75;75.93;99353.16;104769;1271;61509;-26
2022/05/08 03:31:23;;;;;;;10.40;7.20;;;;;;;8.61;76.28;99351.21;104789;1271;61131;-27
2022/05/08 03:33:51;;;;;;;10.30;5.30;;;;;;;8.53;76.40;99356.77;105022;1271;75609;-26
2022/05/08 03:36:20;;;;;;;9.60;5.10;;;;;;;9.11;75.91;99360.74;104934;1271;75992;-27
2022/05/08 03:38:49;;;;;;;10.10;6.40;;;;;;;9.80;74.05;99359.15;104992;1271;73504;-27
2022/05/08 03:41:19;;;;;;;12.10;7.20;;;;;;;9.99;72.91;99366.45;104961;1270;62053;-27
2022/05/08 03:43:48;;;;;;;11.50;7.10;;;;;;;9.92;72.67;99362.25;105165;1271;61826;-27
2022/05/08 03:46:17;;;;;;;11.60;7.20;;;;;;;9.87;72.98;99359.33;105273;1271;75513;-27
2022/05/08 03:48:48;;;;;;;12.00;6.80;;;;;;;9.81;72.96;99362.19;105266;1270;75958;-27
2022/05/08 03:51:16;;;;;;;12.60;7.40;;;;;;;9.72;72.94;99359.73;105173;1271;74335;-27
2022/05/08 03:53:46;;;;;;;10.90;5.60;;;;;;;9.58;74.03;99362.45;105157;1271;61872;-27
2022/05/08 03:56:15;;;;;;;10.50;5.60;;;;;;;10.20;73.72;99366.39;105112;1271;62092;-27
2022/05/08 03:58:44;;;;;;;9.90;6.70;;;;;;;11.02;71.79;99372.25;105173;1271;75586;-27
2022/05/08 04:01:13;;;;;;;10.80;6.50;;;;;;;11.13;71.09;99371.23;105268;1270;76154;-27
2022/05/08 04:03:42;;;;;;;11.40;6.40;;;;;;;10.88;71.51;99371.10;105241;1270;74673;-27
2022/05/08 04:06:11;;;;;;;11.10;6.90;;;;;;;10.58;72.01;99368.16;105252;1271;61067;-27
2022/05/08 04:08:41;;;;;;;10.90;7.00;;;;;;;10.44;72.26;99368.88;104999;1270;62037;-27
2022/05/08 04:11:11;;;;;;;8.70;6.90;;;;;;;10.37;72.23;99368.83;104990;1270;75413;-27
2022/05/08 04:13:41;;;;;;;7.00;4.60;;;;;;;10.56;72.75;99374.68;105036;1271;76699;-27
2022/05/08 04:16:16;;;;;;;10.50;5.40;;;;;;;11.46;71.83;99374.02;104991;1271;74119;-27
2022/05/08 04:18:45;;;;;;;8.50;5.80;;;;;;;12.41;68.79;99374.48;104943;1271;61178;-27
2022/05/08 04:21:14;;;;;;;9.70;6.70;;;;;;;12.60;68.40;99380.56;105025;1271;62018;-27
2022/05/08 04:26:32;;;;;;;10.50;8.10;;;;;;;13.16;66.50;99385.80;104997;1269;74935;-27
2022/05/08 04:29:01;;;;;;;12.90;8.10;;;;;;;13.32;65.97;99388.76;104932;1271;73346;-26
2022/05/08 04:31:32;;;;;;;11.10;8.50;;;;;;;13.54;65.49;99392.23;104943;1270;61179;-26
2022/05/08 04:34:02;;;;;;;15.00;8.80;;;;;;;13.71;65.72;99399.89;104944;1271;61809;-27
2022/05/08 04:36:32;;;;;;;12.50;7.50;;;;;;;13.88;65.55;99401.00;104944;1271;73832;-27
2022/05/08 04:39:01;;;;;;;12.90;7.90;;;;;;;13.86;64.93;99399.70;104990;1271;76254;-26
2022/05/08 04:41:30;;;;;;;16.90;9.40;;;;;;;13.66;65.24;99404.27;104971;1271;72820;-26
2022/05/08 04:44:00;;;;;;;15.90;11.00;;;;;;;13.58;66.00;99402.45;105083;1270;62011;-27
2022/05/08 04:46:29;;;;;;;12.10;7.60;;;;;;;13.52;66.58;99408.10;105120;1271;61747;-27
2022/05/08 04:49:05;;;;;;;11.50;8.20;;;;;;;14.03;65.82;99413.55;105003;1271;75321;-27
2022/05/08 04:51:36;;;;;;;13.70;8.70;;;;;;;14.43;63.69;99414.54;104958;1271;74021;-27
2022/05/08 04:54:04;;;;;;;11.30;8.60;;;;;;;14.33;63.51;99415.76;105167;1271;74414;-27
2022/05/08 04:56:33;;;;;;;20.70;9.30;;;;;;;14.13;63.86;99412.81;104996;1271;61121;-27
2022/05/08 04:59:02;;;;;;;14.00;9.30;;;;;;;14.14;63.80;99412.97;104983;1271;61941;-27
2022/05/08 05:01:35;;;;;;;13.40;9.00;;;;;;;14.20;63.16;99410.48;104770;1271;75687;-27
2022/05/08 05:04:04;;;;;;;14.80;8.50;;;;;;;14.43;62.79;99416.80;104955;1271;75962;-27
2022/05/08 05:06:35;;;;;;;13.30;8.40;;;;;;;14.74;62.40;99418.86;104967;1271;74125;-27
2022/05/08 05:09:04;;;;;;;12.60;8.20;;;;;;;14.93;61.54;99420.09;104815;1272;61138;-25
2022/05/08 05:11:33;;;;;;;11.60;7.70;;;;;;;14.89;61.78;99420.46;105037;1271;61057;-25
2022/05/08 05:14:03;;;;;;;10.90;8.30;;;;;;;14.73;62.36;99417.42;104980;1271;73284;-25
2022/05/08 05:16:32;;;;;;;11.90;8.70;;;;;;;14.55;62.84;99420.58;104951;1271;76103;-25
2022/05/08 05:19:02;;;;;;;13.30;7.90;;;;;;;14.54;62.72;99424.13;104921;1271;74444;-25
2022/05/08 05:21:31;;;;;;;14.40;8.40;;;;;;;14.47;62.94;99422.19;105008;1271;61230;-25
2022/05/08 05:24:00;;;;;;;12.50;8.20;;;;;;;14.50;63.01;99421.94;104989;1271;61792;-25
2022/05/08 05:26:29;;;;;;;15.80;9.10;;;;;;;14.51;62.93;99423.36;104973;1271;75519;-25
2022/05/08 05:28:58;;;;;;;16.30;7.50;;;;;;;14.63;62.72;99418.95;104817;1271;74918;-25
2022/05/08 05:31:27;;;;;;;10.40;6.90;;;;;;;14.93;62.35;99420.98;104893;1271;74237;-24
2022/05/08 05:33:56;;;;;;;11.00;7.30;;;;;;;15.24;61.99;99424.89;104962;1271;61266;-24
2022/05/08 05:36:25;;;;;;;11.30;7.30;;;;;;;15.58;61.60;99424.60;104984;1271;61130;-25
2022/05/08 05:38:54;;;;;;;11.10;7.00;;;;;;;15.92;60.70;99426.84;104957;1271;75235;-25
2022/05/08 05:41:23;;;;;;;9.40;7.10;;;;;;;16.14;60.35;99430.77;105001;1271;74737;-25
2022/05/08 05:43:51;;;;;;;8.50;6.50;;;;;;;16.30;60.55;99429.36;104990;1271;74398;-25
2022/05/08 05:49:08;;;;;;;8.10;6.70;;;;;;;16.90;59.47;99427.86;105261;1270;61092;-25
2022/05/08 05:51:37;;;;;;;8.70;6.60;;;;;;;17.22;58.35;99430.58;105163;1271;77439;-25
2022/05/08 05:54:06;;;;;;;10.10;6.70;;;;;;;17.51;57.22;99434.40;105002;1271;74977;-25
2022/05/08 05:56:35;;;;;;;8.40;6.20;;;;;;;17.76;56.69;99432.48;105064;1271;72960;-25
2022/05/08 05:59:04;;;;;;;11.50;6.90;;;;;;;18.03;56.33;99433.92;105163;1271;61884;-25
2022/05/08 06:01:52;;;;;;;13.20;6.40;;;;;;;18.03;55.43;99435.48;105268;1271;61144;-25
2022/05/08 06:04:21;;;;;;;10.10;6.80;;;;;;;18.25;56.35;99435.85;105007;1269;75406;-25
2022/05/08 06:06:51;;;;;;;9.20;6.80;;;;;;;18.30;55.80;99434.96;105070;1271;76436;-25
2022/05/08 06:09:24;;;;;;;9.50;7.50;;;;;;;18.04;56.17;99435.93;104935;1271;74399;-25
2022/05/08 06:11:53;;;;;;;9.00;6.90;;;;;;;18.05;56.47;99433.86;104924;1271;61045;-26
2022/05/08 06:14:23;;;;;;;7.80;6.90;;;;;;;18.21;56.85;99433.28;104979;1271;61975;-25
2022/05/08 06:16:54;;;;;;;6.70;6.00;;;;;;;18.41;55.70;99426.90;104971;1271;75599;-25
2022/05/08 06:19:23;;;;;;;6.40;5.70;;;;;;;18.52;55.38;99429.05;104988;1271;75801;-25
2022/05/08 06:21:54;;;;;;;7.50;6.80;;;;;;;18.55;55.09;99429.58;104927;1271;73427;-25
2022/05/08 06:24:23;;;;;;;8.80;6.80;;;;;;;18.06;56.05;99431.09;104930;1271;62254;-26
2022/05/08 06:26:52;;;;;;;9.20;6.20;;;;;;;18.10;56.58;99428.95;104991;1270;61194;-25
2022/05/08 06:29:21;;;;;;;6.50;5.70;;;;;;;18.65;55.47;99433.97;104990;1269;75362;-25
2022/05/08 06:31:51;;;;;;;6.50;5.50;;;;;;;18.87;54.57;99435.27;104983;1271;76089;-25
2022/05/08 06:34:20;;;;;;;6.60;5.70;;;;;;;18.97;53.98;99435.95;104955;1271;74590;-26
2022/05/08 06:36:49;;;;;;;6.70;5.20;;;;;;;19.05;53.83;99435.39;105002;1270;61167;-25
2022/05/08 06:39:20;;;;;;;7.00;4.60;;;;;;;19.26;53.53;99438.02;104979;1271;62009;-25
2022/05/08 06:41:50;;;;;;;5.60;5.00;;;;;;;19.44;52.69;99437.04;104830;1271;74550;-25
2022/05/08 06:44:28;;;;;;;5.50;4.90;;;;;;;19.55;53.12;99434.99;104810;1271;76136;-26
2022/05/08 06:46:58;;;;;;;5.50;4.90;;;;;;;19.69;52.80;99432.84;105030;1271;73777;-25
2022/05/08 06:49:27;;;;;;;8.40;5.80;;;;;;;19.94;51.71;99428.95;104953;1271;61150;-26
2022/05/08 06:51:56;;;;;;;6.10;5.50;;;;;;;20.20;51.53;99424.13;105042;1271;61070;-25
2022/05/08 06:54:26;;;;;;;5.50;4.90;;;;;;;20.45;50.92;99421.77;104936;1271;75517;-24
2022/05/08 06:56:56;;;;;;;6.60;5.70;;;;;;;20.68;49.38;99425.66;104816;1271;75000;-25
2022/05/08 07:02:12;;;;;;;5.40;4.50;;;;;;;21.19;48.70;99421.86;105138;1271;62211;-25
2022/05/08 07:04:42;;;;;;;4.80;3.90;;;;;;;21.10;47.62;99423.30;105074;1271;62503;-25
2022/05/08 07:07:13;;;;;;;6.80;4.20;;;;;;;20.93;48.05;99424.89;105001;1271;74394;-25
2022/05/08 07:09:43;;;;;;;5.00;4.30;;;;;;;20.88;47.78;99423.39;104849;1271;75338;-25
2022/05/08 07:12:12;;;;;;;4.60;3.90;;;;;;;20.83;47.31;99422.59;104947;1271;74139;-25
2022/05/08 07:14:42;;;;;;;4.70;3.80;;;;;;;21.06;47.34;99418.45;104804;1272;62133;-25
2022/05/08 07:17:21;;;;;;;4.90;4.40;;;;;;;21.33;45.44;99418.73;104903;1271;61112;-25
2022/05/08 07:19:50;;;;;;;4.80;4.30;;;;;;;21.32;45.87;99417.88;104956;1271;75618;-25
2022/05/08 07:22:19;;;;;;;5.10;4.50;;;;;;;21.36;44.83;99417.52;104948;1271;78022;-25
2022/05/08 07:24:48;;;;;;;6.20;4.40;;;;;;;21.38;44.82;99416.61;104986;1271;73949;-26
2022/05/08 07:27:17;;;;;;;5.20;4.50;;;;;;;21.67;44.37;99418.55;104981;1270;61203;-25
2022/05/08 07:29:47;;;;;;;5.20;4.70;;;;;;;21.88;44.53;99418.85;104917;1270;61059;-25
2022/05/08 07:32:17;;;;;;;6.00;5.10;;;;;;;22.08;44.60;99420.13;105017;1271;75229;-25
2022/05/08 07:37:33;;;;;;;5.90;5.30;;;;;;;22.45;43.80;99417.86;104920;1271;73477;-25
2022/05/08 07:40:02;;;;;;;6.10;5.40;;;;;;;22.36;43.44;99416.23;104949;1271;62090;-25
2022/05/08 07:42:33;;;;;;;7.10;4.60;;;;;;;22.27;43.72;99419.88;104845;1271;61112;-25
2022/05/08 07:45:03;;;;;;;5.50;4.60;;;;;;;22.58;43.01;99422.59;104847;1271;75307;-25
2022/05/08 07:47:33;;;;;;;4.90;4.20;;;;;;;22.75;42.50;99420.41;104900;1271;75070;-25
2022/05/08 07:50:02;;;;;;;5.70;4.60;;;;;;;22.62;42.48;99421.73;104760;1272;73364;-26
2022/05/08 07:52:39;;;;;;;6.60;5.10;;;;;;;22.65;42.04;99418.86;104969;1271;61964;-25
2022/05/08 07:55:08;;;;;;;4.80;4.30;;;;;;;22.73;43.20;99416.98;104954;1271;61095;-26
2022/05/08 07:57:38;;;;;;;5.10;4.60;;;;;;;22.73;42.73;99418.89;104840;1271;74717;-26
2022/05/08 08:00:07;;;;;;;5.40;4.90;;;;;;;22.30;41.27;99421.98;104939;1271;75964;-26
2022/05/08 08:02:42;;;;;;;5.90;5.10;;;;;;;22.19;42.51;99424.02;104780;1271;74419;-25
2022/05/08 08:05:11;;;;;;;6.30;5.60;;;;;;;21.34;42.59;99416.90;104986;1272;61229;-26
2022/05/08 08:07:40;;;;;;;6.00;4.70;;;;;;;21.30;43.52;99425.70;105009;1271;62046;-25
2022/05/08 08:10:09;;;;;;;7.40;5.00;;;;;;;21.38;43.25;99426.77;104994;1271;75388;-25
2022/05/08 08:12:39;;;;;;;7.70;5.20;;;;;;;21.79;42.41;99425.98;104998;1271;75988;-25
2022/05/08 08:15:09;;;;;;;6.80;5.10;;;;;;;22.24;42.86;99425.77;105101;1271;74469;-26
2022/05/08 08:17:39;;;;;;;5.10;4.60;;;;;;;22.54;41.19;99422.89;105143;1271;62022;-25
2022/05/08 08:20:09;;;;;;;6.10;5.20;;;;;;;22.41;40.11;99421.13;105362;1271;62041;-25
2022/05/08 08:22:39;;;;;;;5.50;4.30;;;;;;;22.30;41.27;99422.38;105169;1271;74675;-25
2022/05/08 08:25:08;;;;;;;5.70;4.90;;;;;;;22.16;41.81;99423.67;105021;1271;75164;-25
2022/05/08 08:27:39;;;;;;;5.80;4.80;;;;;;;21.81;42.86;99423.65;104940;1271;73444;-25
2022/05/08 08:30:08;;;;;;;5.70;4.40;;;;;;;22.03;42.30;99420.05;104945;1271;61167;-26
2022/05/08 08:32:37;;;;;;;6.40;4.90;;;;;;;22.01;41.99;99423.50;104883;1270;62311;-25
2022/05/08 08:35:07;;;;;;;8.20;5.10;;;;;;;21.95;42.12;99419.09;104948;1271;75718;-25
2022/05/08 08:37:36;;;;;;;7.00;4.70;;;;;;;22.22;42.30;99417.51;104836;1271;75497;-25
2022/05/08 08:40:05;;;;;;;7.70;3.90;;;;;;;22.72;41.51;99415.09;104966;1271;74291;-26
2022/05/08 08:42:35;;;;;;;4.70;4.20;;;;;;;23.31;40.46;99421.00;104827;1271;61117;-25
2022/05/08 08:48:08;;;;;;;6.00;4.50;;;;;;;23.87;36.40;99415.80;105176;1271;75595;-25
2022/05/08 08:50:38;;;;;;;6.60;4.40;;;;;;;24.11;36.87;99411.13;105304;1271;75216;-25
2022/05/08 08:53:07;;;;;;;4.40;3.80;;;;;;;24.26;35.90;99414.27;104975;1274;74354;-25
2022/05/08 08:55:36;;;;;;;5.10;4.10;;;;;;;24.55;35.48;99409.73;104875;1271;62126;-26
2022/05/08 08:58:05;;;;;;;5.00;3.60;;;;;;;24.69;34.44;99408.45;105235;1271;61311;-26
2022/05/08 09:00:34;;;;;;;5.20;3.80;;;;;;;25.13;34.41;99402.64;105001;1271;75860;-26
2022/05/08 09:03:04;;;;;;;5.40;3.60;;;;;;;25.34;35.13;99403.94;104975;1271;75987;-26
2022/05/08 09:05:32;;;;;;;4.20;3.80;;;;;;;25.72;34.34;99405.77;105079;1271;74470;-26
2022/05/08 09:08:02;;;;;;;5.40;3.90;;;;;;;26.07;33.31;99406.46;104859;1271;61916;-26
2022/05/08 09:10:35;;;;;;;5.00;3.20;;;;;;;26.40;33.58;99402.89;104985;1271;61062;-26
2022/05/08 09:13:05;;;;;;;5.90;3.50;;;;;;;26.13;30.78;99399.10;105106;1271;75362;-25
2022/05/08 09:15:38;;;;;;;4.10;3.20;;;;;;;26.24;32.48;99401.08;105076;1271;75953;-25
2022/05/08 09:18:09;;;;;;;4.40;3.30;;;;;;;25.97;30.90;99397.88;105315;1271;73195;-25
2022/05/08 09:20:43;;;;;;;8.20;3.30;;;;;;;25.01;33.20;99395.95;105114;1272;61150;-25
2022/05/08 09:23:14;;;;;;;4.40;3.30;;;;;;;23.61;34.89;99394.58;104868;1271;61187;-25
2022/05/08 09:26:00;;;;;;;3.70;3.10;;;;;;;22.96;35.65;99402.13;105205;1271;73711;-25
2022/05/08 09:28:40;;;;;;;5.10;3.20;;;;;;;22.77;35.28;99400.54;105298;1271;74860;-25
2022/05/08 09:31:13;;;;;;;5.30;3.10;;;;;;;22.65;35.89;99394.23;105027;1271;74292;-25
2022/05/08 09:33:46;;;;;;;4.20;3.30;;;;;;;22.37;35.51;99392.08;104668;1271;62065;-27
2022/05/08 09:36:19;;;;;;;3.00;2.60;;;;;;;22.66;35.72;99388.88;104850;1271;61220;-27
2022/05/08 09:38:50;;;;;;;3.70;3.00;;;;;;;23.18;33.49;99384.14;104807;1271;75730;-25
2022/05/08 09:41:45;;;;;;;20.60;3.10;;;;;;;23.37;33.51;99381.59;104778;1274;76002;-25
2022/05/08 09:44:15;;;;;;;4.30;2.90;;;;;;;23.75;33.56;99378.57;104925;1270;74435;-25
2022/05/08 09:46:45;;;;;;;5.20;3.10;;;;;;;24.05;32.05;99375.57;104820;1274;61803;-26
2022/05/08 09:49:18;;;;;;;5.00;2.80;;;;;;;24.65;31.28;99374.73;104803;1272;61186;-26
2022/05/08 09:51:47;;;;;;;4.70;3.40;;;;;;;25.27;30.17;99374.95;104693;1271;75422;-26
2022/05/08 09:54:17;;;;;;;5.50;3.40;;;;;;;25.05;30.90;99374.55;104739;1274;76000;-26
2022/05/08 09:56:46;;;;;;;6.90;3.30;;;;;;;23.78;32.15;99377.66;104765;1271;73279;-26
2022/05/08 09:59:15;;;;;;;5.30;2.90;;;;;;;23.18;33.04;99379.55;105140;1271;61882;-26
2022/05/08 10:01:44;;;;;;;6.70;3.50;;;;;;;22.63;34.47;99382.09;105162;1272;61040;-26
2022/05/08 10:04:13;;;;;;;11.80;3.20;;;;;;;22.48;35.26;99382.66;105291;1271;75620;-26
2022/05/08 10:06:42;;;;;;;3.00;2.70;;;;;;;22.45;34.95;99382.08;105037;1271;75976;-26
2022/05/08 10:14:49;;;;;;;4.70;3.00;;;;;;;23.66;32.38;99379.91;104865;1271;62174;-26
2022/05/08 10:17:36;;;;;;;3.60;2.50;;;;;;;24.14;30.85;99380.24;104926;1271;75568;-26
2022/05/08 10:20:07;;;;;;;4.20;2.80;;;;;;;24.18;30.85;99384.20;104791;1272;75241;-26
2022/05/08 10:23:02;;;;;;;6.50;2.80;;;;;;;23.71;32.00;99384.77;104929;1271;73442;-26
2022/05/08 10:25:31;;;;;;;3.70;2.60;;;;;;;23.05;34.75;99386.90;104955;1271;61414;-26
2022/05/08 10:28:06;;;;;;;5.90;3.20;;;;;;;22.49;36.06;99379.10;104948;1271;62391;-26
2022/05/08 10:30:35;;;;;;;4.90;3.40;;;;;;;22.08;37.11;99378.41;104951;1274;75517;-26
2022/05/08 10:33:04;;;;;;;4.50;3.40;;;;;;;22.21;37.73;99384.41;105010;1271;75966;-26
2022/05/08 10:35:33;;;;;;;6.40;3.70;;;;;;;22.22;38.33;99380.05;104977;1271;74320;-27
2022/05/08 10:38:02;;;;;;;3.50;3.00;;;;;;;21.95;38.29;99381.00;105027;1271;62096;-27
2022/05/08 10:40:32;;;;;;;4.20;3.40;;;;;;;21.69;39.45;99380.07;104963;1271;61115;-27
2022/05/08 10:43:10;;;;;;;3.60;3.30;;;;;;;21.47;39.73;99379.23;104768;1271;74499;-26
2022/05/08 10:45:42;;;;;;;4.40;3.40;;;;;;;21.28;39.35;99378.21;105144;1272;76055;-27
2022/05/08 10:48:16;;;;;;;6.50;3.40;;;;;;;21.09;40.23;99376.82;105142;1271;74382;-27
2022/05/08 10:50:51;;;;;;;4.80;3.10;;;;;;;20.93;40.01;99369.67;104900;1271;61103;-26
2022/05/08 10:53:19;;;;;;;6.00;3.00;;;;;;;20.86;40.62;99367.21;104871;1271;62097;-27
2022/05/08 10:55:49;;;;;;;8.00;3.80;;;;;;;20.62;40.22;99365.25;104983;1270;75552;-27
2022/05/08 10:58:18;;;;;;;3.70;3.40;;;;;;;20.60;40.48;99364.29;104964;1272;76011;-26
2022/05/08 11:00:48;;;;;;;5.90;3.30;;;;;;;20.63;41.23;99362.98;104971;1271;73477;-26
2022/05/08 11:03:23;;;;;;;4.30;3.40;;;;;;;21.04;40.68;99359.73;105325;1271;62041;-26
2022/05/08 11:05:52;;;;;;;5.90;3.60;;;;;;;21.48;39.05;99357.23;105158;1271;61051;-26
2022/05/08 11:08:27;;;;;;;4.70;3.50;;;;;;;22.04;36.95;99352.91;104935;1271;73920;-26
2022/05/08 11:11:02;;;;;;;3.90;3.20;;;;;;;22.56;35.91;99343.80;104950;1271;74975;-26
2022/05/08 11:13:43;;;;;;;3.80;3.30;;;;;;;22.95;36.85;99345.15;105068;1271;74719;-26
2022/05/08 11:16:17;;;;;;;12.10;4.70;;;;;;;23.07;36.20;99338.52;104981;1271;61154;-26
2022/05/08 11:18:45;;;;;;;5.30;3.10;;;;;;;23.21;34.83;99335.59;104806;1271;62077;-26
2022/05/08 11:21:15;;;;;;;4.90;3.50;;;;;;;23.39;34.62;99330.13;104870;1271;75537;-26
2022/05/08 11:23:47;;;;;;;7.00;3.50;;;;;;;23.20;34.85;99332.77;104888;1271;76253;-26
2022/05/08 11:26:16;;;;;;;4.20;3.20;;;;;;;23.56;33.88;99333.90;105136;1271;73890;-27
2022/05/08 11:28:53;;;;;;;3.80;3.10;;;;;;;24.14;33.10;99330.97;104985;1271;61201;-27
2022/05/08 11:31:24;;;;;;;11.30;3.80;;;;;;;23.77;32.49;99328.56;104835;1271;61038;-26
2022/05/08 11:36:44;;;;;;;6.70;3.40;;;;;;;23.70;34.12;99324.60;104843;1271;75969;-26
2022/05/08 11:39:14;;;;;;;3.90;3.40;;;;;;;24.18;34.25;99319.86;105034;1271;74517;-26
2022/05/08 11:41:49;;;;;;;3.80;2.80;;;;;;;24.45;33.09;99318.90;104819;1272;62050;-26
2022/05/08 11:44:25;;;;;;;5.80;2.60;;;;;;;24.74;33.45;99314.66;104860;1271;61853;-26
2022/05/08 11:46:57;;;;;;;3.30;2.60;;;;;;;25.12;31.70;99313.23;104982;1271;74899;-26
2022/05/08 11:49:29;;;;;;;4.00;2.50;;;;;;;24.99;31.05;99311.66;104826;1271;75980;-26
2022/05/08 11:51:59;;;;;;;3.80;3.00;;;;;;;24.79;31.96;99307.61;104781;1271;74411;-26
2022/05/08 11:54:40;;;;;;;3.40;2.90;;;;;;;24.73;31.90;99307.71;104875;1271;61058;-26
2022/05/08 11:57:16;;;;;;;4.00;2.70;;;;;;;24.64;31.72;99303.43;104793;1271;61988;-26
2022/05/08 11:59:50;;;;;;;4.70;2.60;;;;;;;23.82;31.48;99303.58;104994;1271;75847;-26
2022/05/08 12:02:38;;;;;;;4.10;2.70;;;;;;;23.71;31.28;99299.90;105024;1271;76075;-26
2022/05/08 12:05:09;;;;;;;3.70;2.40;;;;;;;23.03;31.25;99300.77;104897;1271;73412;-26